sensor_id;sensor_type;location;lat;lon;timestamp;pressure;altitude;pressure_sealevel;temperature;humidity
64679;BME280;51094;53.864;27.676;2023-04-01T00:01:50;97517.47;;;5.33;90.79
64679;BME280;51094;53.864;27.676;2023-04-01T00:04:17;97511.38;;;5.34;90.47
64679;BME280;51094;53.864;27.676;2023-04-01T00:06:43;97510.91;;;5.29;90.68
64679;BME280;51094;53.864;27.676;2023-04-01T00:09:11;97490.19;;;5.08;91.20
64679;BME280;51094;53.864;27.676;2023-04-01T00:11:37;97509.72;;;5.22;90.20
64679;BME280;51094;53.864;27.676;2023-04-01T00:14:05;97460.78;;;4.77;90.71
64679;BME280;51094;53.864;27.676;2023-04-01T00:16:32;97512.91;;;5.14;90.22
64679;BME280;51094;53.864;27.676;2023-04-01T00:18:59;97518.53;;;5.08;90.63
64679;BME280;51094;53.864;27.676;2023-04-01T00:21:26;97515.47;;;5.03;91.03
64679;BME280;51094;53.864;27.676;2023-04-01T00:23:53;97445.75;;;4.38;90.26
64679;BME280;51094;53.864;27.676;2023-04-01T00:26:20;97513.78;;;4.80;89.82
64679;BME280;51094;53.864;27.676;2023-04-01T00:28:48;97516.63;;;4.88;90.97
64679;BME280;51094;53.864;27.676;2023-04-01T00:31:15;97432.09;;;4.48;90.99
64679;BME280;51094;53.864;27.676;2023-04-01T00:33:42;97479.28;;;4.82;91.01
64679;BME280;51094;53.864;27.676;2023-04-01T00:36:15;97512.44;;;5.09;91.04
64679;BME280;51094;53.864;27.676;2023-04-01T00:38:43;97474.03;;;4.95;91.36
64679;BME280;51094;53.864;27.676;2023-04-01T00:41:11;97509.25;;;5.28;91.36
64679;BME280;51094;53.864;27.676;2023-04-01T00:43:43;97506.34;;;5.32;91.31
64679;BME280;51094;53.864;27.676;2023-04-01T00:46:11;97503.88;;;5.31;90.64
64679;BME280;51094;53.864;27.676;2023-04-01T00:48:39;97502.34;;;5.28;91.00
64679;BME280;51094;53.864;27.676;2023-04-01T00:51:12;97482.00;;;5.03;91.34
64679;BME280;51094;53.864;27.676;2023-04-01T00:53:44;97510.06;;;5.28;90.70
64679;BME280;51094;53.864;27.676;2023-04-01T00:56:15;97499.66;;;5.30;91.04
64679;BME280;51094;53.864;27.676;2023-04-01T00:58:48;97399.94;;;4.65;90.83
64679;BME280;51094;53.864;27.676;2023-04-01T01:01:15;97476.03;;;5.14;90.30
64679;BME280;51094;53.864;27.676;2023-04-01T01:03:42;97455.06;;;4.96;90.49
64679;BME280;51094;53.864;27.676;2023-04-01T01:06:44;97457.88;;;4.93;91.22
64679;BME280;51094;53.864;27.676;2023-04-01T01:12:14;97434.34;;;4.64;90.80
64679;BME280;51094;53.864;27.676;2023-04-01T01:17:52;97492.53;;;5.11;90.78
64679;BME280;51094;53.864;27.676;2023-04-01T01:23:23;97490.19;;;4.97;90.21
64679;BME280;51094;53.864;27.676;2023-04-01T01:36:32;97412.22;;;4.61;91.52
64679;BME280;51094;53.864;27.676;2023-04-01T01:39:07;97474.50;;;5.11;91.46
64679;BME280;51094;53.864;27.676;2023-04-01T01:41:38;97482.34;;;5.10;91.36
64679;BME280;51094;53.864;27.676;2023-04-01T01:44:08;97500.25;;;5.33;91.46
64679;BME280;51094;53.864;27.676;2023-04-01T01:46:37;97440.31;;;5.09;91.39
64679;BME280;51094;53.864;27.676;2023-04-01T01:49:07;97492.97;;;5.39;90.63
64679;BME280;51094;53.864;27.676;2023-04-01T01:51:36;97460.41;;;5.26;91.25
64679;BME280;51094;53.864;27.676;2023-04-01T01:54:05;97484.41;;;5.38;91.91
64679;BME280;51094;53.864;27.676;2023-04-01T01:56:32;97472.13;;;5.30;90.88
64679;BME280;51094;53.864;27.676;2023-04-01T01:59:06;97470.88;;;5.14;90.61
64679;BME280;51094;53.864;27.676;2023-04-01T02:01:39;97447.44;;;5.06;90.92
64679;BME280;51094;53.864;27.676;2023-04-01T02:04:11;97514.41;;;5.28;91.00
64679;BME280;51094;53.864;27.676;2023-04-01T02:06:44;97529.75;;;5.29;90.85
64679;BME280;51094;53.864;27.676;2023-04-01T02:09:13;97494.38;;;5.31;91.31
64679;BME280;51094;53.864;27.676;2023-04-01T02:11:52;97500.00;;;5.37;91.38
64679;BME280;51094;53.864;27.676;2023-04-01T02:14:25;97515.94;;;5.42;91.01
64679;BME280;51094;53.864;27.676;2023-04-01T02:16:57;97485.94;;;5.29;90.85
64679;BME280;51094;53.864;27.676;2023-04-01T02:19:29;97498.94;;;5.39;91.45
64679;BME280;51094;53.864;27.676;2023-04-01T02:22:01;97510.66;;;5.32;91.09
64679;BME280;51094;53.864;27.676;2023-04-01T02:24:31;97493.44;;;5.21;90.88
64679;BME280;51094;53.864;27.676;2023-04-01T02:27:00;97398.41;;;4.62;90.20
64679;BME280;51094;53.864;27.676;2023-04-01T02:29:27;97477.31;;;5.08;90.76
64679;BME280;51094;53.864;27.676;2023-04-01T02:31:55;97505.50;;;5.21;90.47
64679;BME280;51094;53.864;27.676;2023-04-01T02:34:23;97499.41;;;5.22;90.96
64679;BME280;51094;53.864;27.676;2023-04-01T02:36:52;97496.72;;;5.23;90.87
64679;BME280;51094;53.864;27.676;2023-04-01T02:39:19;97492.28;;;5.25;90.44
64679;BME280;51094;53.864;27.676;2023-04-01T02:41:47;97462.91;;;5.06;91.17
64679;BME280;51094;53.864;27.676;2023-04-01T02:44:14;97437.03;;;4.96;91.12
64679;BME280;51094;53.864;27.676;2023-04-01T02:46:42;97497.19;;;5.40;90.94
64679;BME280;51094;53.864;27.676;2023-04-01T02:49:10;97450.25;;;5.03;90.54
64679;BME280;51094;53.864;27.676;2023-04-01T02:51:37;97496.72;;;5.46;90.97
64679;BME280;51094;53.864;27.676;2023-04-01T02:54:03;97388.56;;;4.79;90.30
64679;BME280;51094;53.864;27.676;2023-04-01T02:56:30;97489.34;;;5.41;90.51
64679;BME280;51094;53.864;27.676;2023-04-01T02:58:57;97391.50;;;4.74;89.97
64679;BME280;51094;53.864;27.676;2023-04-01T03:01:24;97491.81;;;5.20;89.81
64679;BME280;51094;53.864;27.676;2023-04-01T03:03:51;97372.06;;;4.48;89.98
64679;BME280;51094;53.864;27.676;2023-04-01T03:06:18;97525.06;;;5.23;90.19
64679;BME280;51094;53.864;27.676;2023-04-01T03:08:45;97489.94;;;5.22;90.31
64679;BME280;51094;53.864;27.676;2023-04-01T03:11:12;97505.06;;;5.16;89.36
64679;BME280;51094;53.864;27.676;2023-04-01T03:13:39;97497.69;;;5.11;89.57
64679;BME280;51094;53.864;27.676;2023-04-01T03:16:06;97484.81;;;5.11;90.21
64679;BME280;51094;53.864;27.676;2023-04-01T03:18:34;97483.88;;;5.12;89.54
64679;BME280;51094;53.864;27.676;2023-04-01T03:21:18;97397.81;;;4.59;90.00
64679;BME280;51094;53.864;27.676;2023-04-01T03:23:45;97482.31;;;5.21;89.86
64679;BME280;51094;53.864;27.676;2023-04-01T03:26:13;97480.81;;;5.07;89.40
64679;BME280;51094;53.864;27.676;2023-04-01T03:28:40;97440.53;;;4.95;89.83
64679;BME280;51094;53.864;27.676;2023-04-01T03:31:07;97454.34;;;5.05;89.34
64679;BME280;51094;53.864;27.676;2023-04-01T03:33:42;97407.53;;;4.78;89.59
64679;BME280;51094;53.864;27.676;2023-04-01T03:36:08;97446.16;;;5.00;89.12
64679;BME280;51094;53.864;27.676;2023-04-01T03:38:35;97410.69;;;4.70;89.20
64679;BME280;51094;53.864;27.676;2023-04-01T03:41:02;97460.19;;;4.96;88.91
64679;BME280;51094;53.864;27.676;2023-04-01T03:43:32;97430.81;;;4.65;89.22
64679;BME280;51094;53.864;27.676;2023-04-01T03:45:59;97400.84;;;4.30;88.69
64679;BME280;51094;53.864;27.676;2023-04-01T03:48:26;97507.97;;;4.89;89.01
64679;BME280;51094;53.864;27.676;2023-04-01T03:50:53;97512.88;;;4.92;88.85
64679;BME280;51094;53.864;27.676;2023-04-01T03:53:20;97506.69;;;4.94;88.88
64679;BME280;51094;53.864;27.676;2023-04-01T03:55:47;97507.28;;;4.98;89.76
64679;BME280;51094;53.864;27.676;2023-04-01T03:58:14;97352.03;;;4.07;88.92
64679;BME280;51094;53.864;27.676;2023-04-01T04:00:41;97517.94;;;5.05;89.16
64679;BME280;51094;53.864;27.676;2023-04-01T04:03:09;97506.69;;;5.06;88.76
64679;BME280;51094;53.864;27.676;2023-04-01T04:05:37;97474.25;;;4.92;88.68
64679;BME280;51094;53.864;27.676;2023-04-01T04:08:04;97515.97;;;5.19;89.16
64679;BME280;51094;53.864;27.676;2023-04-01T04:10:31;97512.78;;;5.27;88.58
64679;BME280;51094;53.864;27.676;2023-04-01T04:12:58;97516.63;;;5.32;88.74
64679;BME280;51094;53.864;27.676;2023-04-01T04:15:27;97515.22;;;5.40;88.74
64679;BME280;51094;53.864;27.676;2023-04-01T04:17:54;97490.03;;;5.21;88.40
64679;BME280;51094;53.864;27.676;2023-04-01T04:20:21;97517.34;;;5.46;88.75
64679;BME280;51094;53.864;27.676;2023-04-01T04:22:48;97516.53;;;5.45;87.93
64679;BME280;51094;53.864;27.676;2023-04-01T04:25:15;97484.31;;;5.28;88.18
64679;BME280;51094;53.864;27.676;2023-04-01T04:27:42;97523.44;;;5.56;88.98
64679;BME280;51094;53.864;27.676;2023-04-01T04:30:11;97448.03;;;5.09;88.73
64679;BME280;51094;53.864;27.676;2023-04-01T04:32:38;97522.94;;;5.62;87.57
64679;BME280;51094;53.864;27.676;2023-04-01T04:35:05;97518.47;;;5.64;87.81
64679;BME280;51094;53.864;27.676;2023-04-01T04:37:33;97402.84;;;4.83;87.52
64679;BME280;51094;53.864;27.676;2023-04-01T04:40:00;97521.66;;;5.56;87.72
64679;BME280;51094;53.864;27.676;2023-04-01T04:42:28;97531.50;;;5.51;87.18
64679;BME280;51094;53.864;27.676;2023-04-01T04:45:00;97524.25;;;5.45;87.38
64679;BME280;51094;53.864;27.676;2023-04-01T04:47:27;97526.47;;;5.27;86.97
64679;BME280;51094;53.864;27.676;2023-04-01T04:49:54;97526.13;;;5.21;87.12
64679;BME280;51094;53.864;27.676;2023-04-01T04:52:20;97496.75;;;5.01;87.72
64679;BME280;51094;53.864;27.676;2023-04-01T04:54:47;97490.91;;;5.10;87.67
64679;BME280;51094;53.864;27.676;2023-04-01T04:57:14;97513.59;;;5.27;87.75
64679;BME280;51094;53.864;27.676;2023-04-01T04:59:48;97484.09;;;5.09;87.95
64679;BME280;51094;53.864;27.676;2023-04-01T05:02:23;97503.41;;;5.37;87.55
64679;BME280;51094;53.864;27.676;2023-04-01T05:04:50;97502.34;;;5.51;87.41
64679;BME280;51094;53.864;27.676;2023-04-01T05:07:17;97517.41;;;5.78;87.30
64679;BME280;51094;53.864;27.676;2023-04-01T05:09:44;97438.81;;;5.50;87.54
64679;BME280;51094;53.864;27.676;2023-04-01T05:12:13;97504.13;;;6.05;86.50
64679;BME280;51094;53.864;27.676;2023-04-01T05:14:54;97493.03;;;6.14;86.50
64679;BME280;51094;53.864;27.676;2023-04-01T05:17:21;97426.66;;;5.73;86.35
64679;BME280;51094;53.864;27.676;2023-04-01T05:19:48;97498.19;;;6.14;86.24
64679;BME280;51094;53.864;27.676;2023-04-01T05:22:15;97496.25;;;6.06;85.04
64679;BME280;51094;53.864;27.676;2023-04-01T05:24:43;97482.56;;;5.83;84.78
64679;BME280;51094;53.864;27.676;2023-04-01T05:27:10;97520.06;;;5.98;85.36
64679;BME280;51094;53.864;27.676;2023-04-01T05:29:39;97490.06;;;5.86;85.60
64679;BME280;51094;53.864;27.676;2023-04-01T05:32:09;97437.03;;;5.61;85.00
64679;BME280;51094;53.864;27.676;2023-04-01T05:34:36;97476.81;;;5.91;85.18
64679;BME280;51094;53.864;27.676;2023-04-01T05:37:03;97507.44;;;6.16;84.66
64679;BME280;51094;53.864;27.676;2023-04-01T05:39:30;97517.19;;;6.13;84.07
64679;BME280;51094;53.864;27.676;2023-04-01T05:41:57;97524.81;;;6.14;84.80
64679;BME280;51094;53.864;27.676;2023-04-01T05:44:24;97372.09;;;5.24;84.08
64679;BME280;51094;53.864;27.676;2023-04-01T05:47:06;97480.69;;;5.96;84.26
64679;BME280;51094;53.864;27.676;2023-04-01T05:49:33;97306.59;;;4.95;84.47
64679;BME280;51094;53.864;27.676;2023-04-01T05:52:01;97487.69;;;6.26;84.32
64679;BME280;51094;53.864;27.676;2023-04-01T05:54:27;97419.47;;;5.98;83.89
64679;BME280;51094;53.864;27.676;2023-04-01T05:56:55;97401.06;;;5.92;83.40
64679;BME280;51094;53.864;27.676;2023-04-01T05:59:21;97498.78;;;6.59;83.33
64679;BME280;51094;53.864;27.676;2023-04-01T06:01:49;97427.19;;;5.98;82.76
64679;BME280;51094;53.864;27.676;2023-04-01T06:04:17;97520.59;;;6.45;83.82
64679;BME280;51094;53.864;27.676;2023-04-01T06:06:45;97488.22;;;6.41;83.65
64679;BME280;51094;53.864;27.676;2023-04-01T06:09:14;97524.13;;;6.65;84.15
64679;BME280;51094;53.864;27.676;2023-04-01T06:20:42;97492.69;;;6.81;82.51
64679;BME280;51094;53.864;27.676;2023-04-01T06:23:35;97517.28;;;7.36;82.25
64679;BME280;51094;53.864;27.676;2023-04-01T06:45:28;97519.19;;;8.80;80.10
64679;BME280;51094;53.864;27.676;2023-04-01T06:48:30;97521.88;;;8.98;78.89
64679;BME280;51094;53.864;27.676;2023-04-01T06:51:59;97523.88;;;9.14;78.49
64679;BME280;51094;53.864;27.676;2023-04-01T06:54:53;97509.59;;;9.00;78.19
64679;BME280;51094;53.864;27.676;2023-04-01T06:57:47;97522.31;;;8.84;77.10
64679;BME280;51094;53.864;27.676;2023-04-01T07:00:36;97522.75;;;8.70;77.64
64679;BME280;51094;53.864;27.676;2023-04-01T07:03:23;97526.72;;;8.64;78.46
64679;BME280;51094;53.864;27.676;2023-04-01T07:05:53;97534.50;;;8.64;78.50
64679;BME280;51094;53.864;27.676;2023-04-01T07:08:26;97434.59;;;7.94;77.96
64679;BME280;51094;53.864;27.676;2023-04-01T07:11:06;97520.28;;;8.29;77.27
64679;BME280;51094;53.864;27.676;2023-04-01T07:13:59;97494.38;;;7.81;77.26
64679;BME280;51094;53.864;27.676;2023-04-01T07:16:38;97547.94;;;8.00;76.55
64679;BME280;51094;53.864;27.676;2023-04-01T07:19:20;97558.66;;;7.76;76.83
64679;BME280;51094;53.864;27.676;2023-04-01T07:22:20;97544.78;;;7.77;77.73
64679;BME280;51094;53.864;27.676;2023-04-01T07:25:37;97549.88;;;7.58;77.44
64679;BME280;51094;53.864;27.676;2023-04-01T07:28:38;97526.47;;;7.19;78.40
64679;BME280;51094;53.864;27.676;2023-04-01T07:34:26;97552.44;;;7.18;79.59
64679;BME280;51094;53.864;27.676;2023-04-01T07:47:54;97567.94;;;6.97;81.30
64679;BME280;51094;53.864;27.676;2023-04-01T07:50:29;97568.41;;;7.02;82.29
64679;BME280;51094;53.864;27.676;2023-04-01T07:55:57;97581.50;;;7.10;81.78
64679;BME280;51094;53.864;27.676;2023-04-01T08:06:57;97574.69;;;7.09;81.28
64679;BME280;51094;53.864;27.676;2023-04-01T08:12:48;97581.13;;;6.94;81.45
64679;BME280;51094;53.864;27.676;2023-04-01T08:15:53;97577.31;;;6.88;81.54
64679;BME280;51094;53.864;27.676;2023-04-01T08:21:07;97582.59;;;6.87;82.08
64679;BME280;51094;53.864;27.676;2023-04-01T08:23:40;97497.94;;;6.49;82.33
64679;BME280;51094;53.864;27.676;2023-04-01T08:29:00;97581.56;;;6.99;82.34
64679;BME280;51094;53.864;27.676;2023-04-01T08:31:37;97537.03;;;6.86;82.19
64679;BME280;51094;53.864;27.676;2023-04-01T08:34:21;97576.47;;;7.09;82.04
64679;BME280;51094;53.864;27.676;2023-04-01T08:36:52;97558.56;;;6.96;82.23
64679;BME280;51094;53.864;27.676;2023-04-01T08:39:29;97537.84;;;6.65;82.43
64679;BME280;51094;53.864;27.676;2023-04-01T08:47:45;97520.63;;;6.55;82.17
64679;BME280;51094;53.864;27.676;2023-04-01T08:50:23;97559.16;;;6.79;83.10
64679;BME280;51094;53.864;27.676;2023-04-01T09:13:05;97541.41;;;7.16;83.04
64679;BME280;51094;53.864;27.676;2023-04-01T09:27:03;97524.69;;;7.20;82.98
64679;BME280;51094;53.864;27.676;2023-04-01T09:32:48;97533.66;;;7.16;83.27
64679;BME280;51094;53.864;27.676;2023-04-01T09:35:42;97560.50;;;7.24;83.00
64679;BME280;51094;53.864;27.676;2023-04-01T09:38:27;97593.38;;;7.43;83.09
64679;BME280;51094;53.864;27.676;2023-04-01T09:41:07;97520.53;;;7.08;83.01
64679;BME280;51094;53.864;27.676;2023-04-01T09:44:08;97569.28;;;7.43;83.02
64679;BME280;51094;53.864;27.676;2023-04-01T09:46:56;97573.50;;;7.44;82.78
64679;BME280;51094;53.864;27.676;2023-04-01T09:49:47;97566.56;;;7.44;83.19
64679;BME280;51094;53.864;27.676;2023-04-01T09:52:26;97570.78;;;7.36;83.14
64679;BME280;51094;53.864;27.676;2023-04-01T09:58:15;97587.56;;;7.51;82.74
64679;BME280;51094;53.864;27.676;2023-04-01T10:18:00;97587.34;;;7.33;82.78
64679;BME280;51094;53.864;27.676;2023-04-01T10:20:45;97589.00;;;7.34;83.04
64679;BME280;51094;53.864;27.676;2023-04-01T10:29:09;97511.28;;;7.05;83.06
64679;BME280;51094;53.864;27.676;2023-04-01T10:40:31;97583.84;;;7.74;83.45
64679;BME280;51094;53.864;27.676;2023-04-01T11:14:07;97480.56;;;7.52;83.66
64679;BME280;51094;53.864;27.676;2023-04-01T11:25:40;97601.03;;;8.44;82.94
64679;BME280;51094;53.864;27.676;2023-04-01T11:37:30;97597.91;;;8.41;83.89
64679;BME280;51094;53.864;27.676;2023-04-01T11:40:45;97598.84;;;8.40;83.55
64679;BME280;51094;53.864;27.676;2023-04-01T11:43:58;97598.78;;;8.11;83.62
64679;BME280;51094;53.864;27.676;2023-04-01T12:12:38;97600.09;;;8.64;85.04
64679;BME280;51094;53.864;27.676;2023-04-01T12:18:02;97610.84;;;8.70;84.68
64679;BME280;51094;53.864;27.676;2023-04-01T12:31:27;97576.88;;;8.73;84.93
64679;BME280;51094;53.864;27.676;2023-04-01T12:40:37;97526.88;;;8.43;84.94
64679;BME280;51094;53.864;27.676;2023-04-01T12:51:36;97625.03;;;8.94;84.44
64679;BME280;51094;53.864;27.676;2023-04-01T12:59:57;97629.94;;;8.97;84.96
64679;BME280;51094;53.864;27.676;2023-04-01T13:08:36;97639.50;;;8.87;86.24
64679;BME280;51094;53.864;27.676;2023-04-01T13:11:20;97572.25;;;8.38;85.50
64679;BME280;51094;53.864;27.676;2023-04-01T13:14:07;97639.63;;;8.76;85.10
64679;BME280;51094;53.864;27.676;2023-04-01T13:19:34;97587.63;;;8.29;86.38
64679;BME280;51094;53.864;27.676;2023-04-01T13:22:12;97641.69;;;8.63;86.58
64679;BME280;51094;53.864;27.676;2023-04-01T13:25:03;97658.44;;;8.68;86.76
64679;BME280;51094;53.864;27.676;2023-04-01T13:27:46;97652.56;;;8.66;86.75
64679;BME280;51094;53.864;27.676;2023-04-01T13:36:14;97655.69;;;8.41;86.45
64679;BME280;51094;53.864;27.676;2023-04-01T13:39:46;97661.81;;;8.40;86.73
64679;BME280;51094;53.864;27.676;2023-04-01T13:44:22;97659.38;;;8.48;86.56
64679;BME280;51094;53.864;27.676;2023-04-01T13:50:01;97632.59;;;8.28;86.89
64679;BME280;51094;53.864;27.676;2023-04-01T13:55:34;97573.09;;;7.79;86.99
64679;BME280;51094;53.864;27.676;2023-04-01T14:04:20;97667.44;;;8.45;87.38
64679;BME280;51094;53.864;27.676;2023-04-01T14:07:00;97671.13;;;8.52;87.21
64679;BME280;51094;53.864;27.676;2023-04-01T14:09:44;97661.03;;;8.59;88.03
64679;BME280;51094;53.864;27.676;2023-04-01T14:12:29;97668.69;;;8.60;87.02
64679;BME280;51094;53.864;27.676;2023-04-01T14:18:11;97671.28;;;8.60;86.97
64679;BME280;51094;53.864;27.676;2023-04-01T14:21:10;97674.00;;;8.59;86.69
64679;BME280;51094;53.864;27.676;2023-04-01T14:23:42;97677.28;;;8.61;86.77
64679;BME280;51094;53.864;27.676;2023-04-01T14:39:59;97680.81;;;8.70;86.91
64679;BME280;51094;53.864;27.676;2023-04-01T14:42:45;97625.97;;;8.45;86.60
64679;BME280;51094;53.864;27.676;2023-04-01T14:50:50;97656.13;;;8.85;87.33
64679;BME280;51094;53.864;27.676;2023-04-01T14:53:34;97674.16;;;8.96;86.22
64679;BME280;51094;53.864;27.676;2023-04-01T14:56:05;97643.16;;;8.75;86.70
64679;BME280;51094;53.864;27.676;2023-04-01T14:58:43;97675.94;;;8.95;86.28
64679;BME280;51094;53.864;27.676;2023-04-01T15:01:36;97670.75;;;8.95;86.31
64679;BME280;51094;53.864;27.676;2023-04-01T15:18:11;97687.81;;;9.08;86.21
64679;BME280;51094;53.864;27.676;2023-04-01T15:34:40;97691.47;;;9.24;85.34
64679;BME280;51094;53.864;27.676;2023-04-01T15:37:39;97694.47;;;9.20;84.90
64679;BME280;51094;53.864;27.676;2023-04-01T15:40:29;97698.97;;;9.18;85.58
64679;BME280;51094;53.864;27.676;2023-04-01T15:49:31;97695.28;;;9.11;85.19
64679;BME280;51094;53.864;27.676;2023-04-01T15:52:19;97697.47;;;9.15;85.58
64679;BME280;51094;53.864;27.676;2023-04-01T16:00:18;97706.63;;;9.00;85.04
64679;BME280;51094;53.864;27.676;2023-04-01T16:11:29;97707.72;;;8.88;85.53
64679;BME280;51094;53.864;27.676;2023-04-01T16:19:52;97714.94;;;8.94;85.58
64679;BME280;51094;53.864;27.676;2023-04-01T16:22:36;97715.34;;;8.89;85.86
64679;BME280;51094;53.864;27.676;2023-04-01T16:30:42;97705.50;;;8.74;85.96
64679;BME280;51094;53.864;27.676;2023-04-01T16:34:31;97685.59;;;8.55;85.99
64679;BME280;51094;53.864;27.676;2023-04-01T16:39:43;97726.25;;;8.83;86.20
64679;BME280;51094;53.864;27.676;2023-04-01T16:42:35;97728.97;;;8.82;86.07
64679;BME280;51094;53.864;27.676;2023-04-01T16:47:46;97713.41;;;8.62;86.46
64679;BME280;51094;53.864;27.676;2023-04-01T16:50:44;97684.88;;;8.43;86.10
64679;BME280;51094;53.864;27.676;2023-04-01T16:58:36;97756.38;;;8.65;86.49
64679;BME280;51094;53.864;27.676;2023-04-01T17:01:18;97603.59;;;7.75;86.55
64679;BME280;51094;53.864;27.676;2023-04-01T17:03:52;97737.94;;;8.68;86.67
64679;BME280;51094;53.864;27.676;2023-04-01T17:06:31;97767.56;;;8.65;86.01
64679;BME280;51094;53.864;27.676;2023-04-01T17:09:24;97737.94;;;8.68;86.23
64679;BME280;51094;53.864;27.676;2023-04-01T17:12:08;97607.22;;;7.63;85.92
64679;BME280;51094;53.864;27.676;2023-04-01T17:23:01;97748.59;;;8.75;86.57
64679;BME280;51094;53.864;27.676;2023-04-01T17:25:34;97747.53;;;8.77;86.04
64679;BME280;51094;53.864;27.676;2023-04-01T17:31:06;97758.28;;;8.73;86.46
64679;BME280;51094;53.864;27.676;2023-04-01T17:33:37;97757.03;;;8.67;86.58
64679;BME280;51094;53.864;27.676;2023-04-01T17:39:27;97751.84;;;8.57;86.95
64679;BME280;51094;53.864;27.676;2023-04-01T17:42:16;97765.59;;;8.48;86.46
64679;BME280;51094;53.864;27.676;2023-04-01T17:45:03;97767.66;;;8.54;86.73
64679;BME280;51094;53.864;27.676;2023-04-01T17:47:49;97759.91;;;8.54;86.61
64679;BME280;51094;53.864;27.676;2023-04-01T17:56:08;97761.09;;;8.50;87.18
64679;BME280;51094;53.864;27.676;2023-04-01T18:04:59;97764.78;;;8.48;87.21
64679;BME280;51094;53.864;27.676;2023-04-01T18:07:51;97764.91;;;8.46;86.84
64679;BME280;51094;53.864;27.676;2023-04-01T18:10:39;97761.38;;;8.47;87.24
64679;BME280;51094;53.864;27.676;2023-04-01T18:13:25;97698.78;;;8.12;87.43
64679;BME280;51094;53.864;27.676;2023-04-01T18:18:37;97764.13;;;8.55;87.43
64679;BME280;51094;53.864;27.676;2023-04-01T18:21:28;97758.34;;;8.42;86.78
64679;BME280;51094;53.864;27.676;2023-04-01T18:24:02;97743.75;;;8.41;87.08
64679;BME280;51094;53.864;27.676;2023-04-01T18:26:34;97734.13;;;8.22;87.28
64679;BME280;51094;53.864;27.676;2023-04-01T18:32:19;97774.63;;;8.54;87.39
64679;BME280;51094;53.864;27.676;2023-04-01T18:34:57;97766.97;;;8.52;87.24
64679;BME280;51094;53.864;27.676;2023-04-01T18:37:38;97716.66;;;8.15;87.24
64679;BME280;51094;53.864;27.676;2023-04-01T18:43:34;97777.44;;;8.41;87.44
64679;BME280;51094;53.864;27.676;2023-04-01T18:49:11;97769.13;;;8.47;87.40
64679;BME280;51094;53.864;27.676;2023-04-01T18:51:51;97783.34;;;8.53;87.75
64679;BME280;51094;53.864;27.676;2023-04-01T18:54:30;97786.06;;;8.51;87.26
64679;BME280;51094;53.864;27.676;2023-04-01T18:57:02;97782.91;;;8.48;87.18
64679;BME280;51094;53.864;27.676;2023-04-01T18:59:38;97778.00;;;8.45;87.21
64679;BME280;51094;53.864;27.676;2023-04-01T19:02:31;97748.84;;;8.22;87.33
64679;BME280;51094;53.864;27.676;2023-04-01T19:07:51;97751.41;;;8.12;87.18
64679;BME280;51094;53.864;27.676;2023-04-01T19:13:10;97788.31;;;8.35;88.17
64679;BME280;51094;53.864;27.676;2023-04-01T19:16:05;97765.34;;;8.21;87.75
64679;BME280;51094;53.864;27.676;2023-04-01T19:32:11;97790.56;;;8.49;87.33
64679;BME280;51094;53.864;27.676;2023-04-01T19:34:59;97798.88;;;8.53;87.72
64679;BME280;51094;53.864;27.676;2023-04-01T19:37:39;97799.84;;;8.52;87.75
64679;BME280;51094;53.864;27.676;2023-04-01T19:40:20;97795.63;;;8.30;87.50
64679;BME280;51094;53.864;27.676;2023-04-01T19:45:44;97766.13;;;8.12;87.68
64679;BME280;51094;53.864;27.676;2023-04-01T19:50:59;97609.28;;;6.97;87.83
64679;BME280;51094;53.864;27.676;2023-04-01T19:53:31;97808.63;;;8.40;87.98
64679;BME280;51094;53.864;27.676;2023-04-01T19:56:17;97804.97;;;8.42;88.14
64679;BME280;51094;53.864;27.676;2023-04-01T20:01:30;97809.50;;;8.29;88.06
64679;BME280;51094;53.864;27.676;2023-04-01T20:04:17;97656.13;;;7.04;87.75
64679;BME280;51094;53.864;27.676;2023-04-01T20:17:51;97750.38;;;7.73;88.13
64679;BME280;51094;53.864;27.676;2023-04-01T20:20:20;97817.53;;;8.26;88.60
64679;BME280;51094;53.864;27.676;2023-04-01T20:23:21;97809.63;;;8.27;88.35
64679;BME280;51094;53.864;27.676;2023-04-01T20:25:59;97819.03;;;8.28;88.52
64679;BME280;51094;53.864;27.676;2023-04-01T20:28:32;97844.13;;;8.28;88.38
64679;BME280;51094;53.864;27.676;2023-04-01T20:31:41;97826.69;;;8.30;88.12
64679;BME280;51094;53.864;27.676;2023-04-01T20:34:19;97823.00;;;8.23;88.40
64679;BME280;51094;53.864;27.676;2023-04-01T20:36:56;97825.28;;;8.16;88.46
64679;BME280;51094;53.864;27.676;2023-04-01T20:42:34;97832.16;;;8.06;89.01
64679;BME280;51094;53.864;27.676;2023-04-01T20:45:14;97836.84;;;8.12;88.82
64679;BME280;51094;53.864;27.676;2023-04-01T20:47:58;97839.63;;;8.30;88.75
64679;BME280;51094;53.864;27.676;2023-04-01T20:53:20;97835.66;;;8.26;88.87
64679;BME280;51094;53.864;27.676;2023-04-01T21:09:44;97854.06;;;8.02;89.50
64679;BME280;51094;53.864;27.676;2023-04-01T21:12:20;97852.19;;;8.04;88.92
64679;BME280;51094;53.864;27.676;2023-04-01T21:28:36;97851.56;;;8.12;89.68
64679;BME280;51094;53.864;27.676;2023-04-01T21:46:04;97849.31;;;8.28;89.12
64679;BME280;51094;53.864;27.676;2023-04-01T21:51:27;97861.72;;;8.45;89.45
64679;BME280;51094;53.864;27.676;2023-04-01T22:06:11;97788.66;;;8.00;88.98
64679;BME280;51094;53.864;27.676;2023-04-01T22:08:47;97819.03;;;8.19;88.85
64679;BME280;51094;53.864;27.676;2023-04-01T22:11:45;97791.75;;;7.94;88.38
64679;BME280;51094;53.864;27.676;2023-04-01T22:14:29;97881.91;;;8.51;88.50
64679;BME280;51094;53.864;27.676;2023-04-01T22:17:04;97868.97;;;8.51;88.79
64679;BME280;51094;53.864;27.676;2023-04-01T22:27:28;97867.13;;;8.42;87.93
64679;BME280;51094;53.864;27.676;2023-04-01T22:41:08;97865.38;;;8.22;88.27
64679;BME280;51094;53.864;27.676;2023-04-01T22:43:43;97863.34;;;8.05;88.62
64679;BME280;51094;53.864;27.676;2023-04-01T22:51:42;97874.22;;;8.19;88.52
64679;BME280;51094;53.864;27.676;2023-04-01T22:54:43;97873.22;;;8.11;88.76
64679;BME280;51094;53.864;27.676;2023-04-01T23:00:28;97876.63;;;8.11;88.99
64679;BME280;51094;53.864;27.676;2023-04-01T23:05:51;97910.84;;;8.15;89.44